createdAt,value
2019-01-08T00:02:02.718Z,5.00
2019-01-08T00:04:32.255Z,5.00
2019-01-08T00:07:01.628Z,5.00
2019-01-08T00:09:30.911Z,5.10
2019-01-08T00:12:00.214Z,5.10
2019-01-08T00:14:29.515Z,5.10
2019-01-08T00:16:58.816Z,5.10
2019-01-08T00:19:28.099Z,5.10
2019-01-08T00:21:57.421Z,5.20
2019-01-08T00:24:26.964Z,5.20
2019-01-08T00:26:56.267Z,5.20
2019-01-08T00:29:25.551Z,5.20
2019-01-08T00:31:54.855Z,5.20
2019-01-08T00:34:24.146Z,5.20
2019-01-08T00:36:53.443Z,5.20
2019-01-08T00:39:22.742Z,5.20
2019-01-08T00:41:52.377Z,5.20
2019-01-08T00:44:21.663Z,5.20
2019-01-08T00:46:50.966Z,5.20
2019-01-08T00:49:20.588Z,5.20
2019-01-08T00:51:49.887Z,5.20
2019-01-08T00:54:19.499Z,5.30
2019-01-08T00:56:49.107Z,5.30
2019-01-08T00:59:18.398Z,5.30
2019-01-08T01:01:47.699Z,5.30
2019-01-08T01:04:16.998Z,5.40
2019-01-08T01:06:46.612Z,5.40
2019-01-08T01:09:15.911Z,5.40
2019-01-08T01:11:45.523Z,5.40
2019-01-08T01:14:14.912Z,5.40
2019-01-08T01:16:44.195Z,5.40
2019-01-08T01:19:13.494Z,5.40
2019-01-08T01:21:42.799Z,5.40
2019-01-08T01:24:12.079Z,5.40
2019-01-08T01:26:41.367Z,5.40
2019-01-08T01:29:10.661Z,5.50
2019-01-08T01:31:40.236Z,5.50
2019-01-08T01:34:09.512Z,5.50
2019-01-08T01:36:39.143Z,5.50
2019-01-08T01:39:08.418Z,5.50
2019-01-08T01:41:37.711Z,5.50
2019-01-08T01:44:06.987Z,5.50
2019-01-08T01:46:36.282Z,5.50
2019-01-08T01:49:05.575Z,5.50
2019-01-08T01:51:34.857Z,5.50
2019-01-08T01:54:04.140Z,5.50
2019-01-08T01:56:33.426Z,5.50
2019-01-08T01:59:08.331Z,5.60
2019-01-08T02:01:33.695Z,5.60
2019-01-08T02:04:03.291Z,5.60
2019-01-08T02:06:32.903Z,5.70
2019-01-08T02:09:02.260Z,5.70
2019-01-08T02:11:31.619Z,5.80
2019-01-08T02:14:00.896Z,5.80
2019-01-08T02:16:30.187Z,5.80
2019-01-08T02:18:59.485Z,5.80
2019-01-08T02:21:28.764Z,5.80
2019-01-08T02:23:58.311Z,5.80
2019-01-08T02:26:27.582Z,5.90
2019-01-08T02:28:56.875Z,5.90
2019-01-08T02:31:26.418Z,5.90
2019-01-08T02:33:55.709Z,5.90
2019-01-08T02:36:24.988Z,5.90
2019-01-08T02:38:54.289Z,5.90
2019-01-08T02:41:23.905Z,5.90
2019-01-08T02:43:53.485Z,5.90
2019-01-08T02:46:22.819Z,5.90
2019-01-08T02:48:52.095Z,5.90
2019-01-08T02:51:21.381Z,5.90
2019-01-08T02:53:50.671Z,5.90
2019-01-08T02:56:20.251Z,5.90
2019-01-08T02:58:49.534Z,5.90
2019-01-08T03:01:19.051Z,5.90
2019-01-08T03:03:48.354Z,5.90
2019-01-08T03:06:17.956Z,5.90
2019-01-08T03:08:47.230Z,5.80
2019-01-08T03:11:16.530Z,5.80
2019-01-08T03:13:45.798Z,5.80
2019-01-08T03:16:15.083Z,5.80
2019-01-08T03:18:44.379Z,5.80
2019-01-08T03:21:13.666Z,5.90
2019-01-08T03:23:42.948Z,5.90
2019-01-08T03:26:12.571Z,5.90
2019-01-08T03:28:41.852Z,6.00
2019-01-08T03:31:11.135Z,6.20
2019-01-08T03:33:40.419Z,6.20
2019-01-08T03:36:09.978Z,6.30
2019-01-08T03:38:39.579Z,6.30
2019-01-08T03:41:08.874Z,6.30
2019-01-08T03:43:38.391Z,6.30
2019-01-08T03:46:07.687Z,6.30
2019-01-08T03:48:36.985Z,6.30
2019-01-08T03:51:06.595Z,6.20
2019-01-08T03:53:35.869Z,6.30
2019-01-08T03:56:05.162Z,6.30
2019-01-08T03:58:34.443Z,6.30
2019-01-08T04:01:03.739Z,6.30
2019-01-08T04:03:33.038Z,6.30
2019-01-08T04:06:02.313Z,6.50
2019-01-08T04:08:31.590Z,6.50
2019-01-08T04:11:00.888Z,6.50
2019-01-08T04:13:30.146Z,6.60
2019-01-08T04:16:00.360Z,6.60
2019-01-08T04:18:29.703Z,6.60
2019-01-08T04:20:58.991Z,6.60
2019-01-08T04:23:29.536Z,6.60
2019-01-08T04:25:58.891Z,6.60
2019-01-08T04:28:28.188Z,6.60
2019-01-08T04:30:57.473Z,6.60
2019-01-08T04:33:26.763Z,6.70
2019-01-08T04:35:56.037Z,6.70
2019-01-08T04:38:25.340Z,6.70
2019-01-08T04:40:54.611Z,6.70
2019-01-08T04:43:24.174Z,6.70
2019-01-08T04:45:53.446Z,6.80
2019-01-08T04:48:23.114Z,6.80
2019-01-08T04:50:52.395Z,6.70
2019-01-08T04:53:21.696Z,6.70
2019-01-08T04:55:51.022Z,6.80
2019-01-08T04:58:20.388Z,6.80
2019-01-08T05:00:49.724Z,6.80
2019-01-08T05:03:18.994Z,6.80
2019-01-08T05:05:48.599Z,6.70
2019-01-08T05:08:17.894Z,6.70
2019-01-08T05:10:47.182Z,6.70
2019-01-08T05:13:16.480Z,6.70
2019-01-08T05:15:45.771Z,6.70
2019-01-08T05:18:15.043Z,6.70
2019-01-08T05:20:44.331Z,6.80
2019-01-08T05:23:13.620Z,6.80
2019-01-08T05:25:42.906Z,6.80
2019-01-08T05:28:12.187Z,6.80
2019-01-08T05:30:41.474Z,6.80
2019-01-08T05:33:11.098Z,6.80
2019-01-08T05:35:40.442Z,6.80
2019-01-08T05:38:09.769Z,6.90
2019-01-08T05:40:39.047Z,6.90
2019-01-08T05:43:08.346Z,6.90
2019-01-08T05:45:37.622Z,6.80
2019-01-08T05:48:06.898Z,6.80
2019-01-08T05:50:36.195Z,6.70
2019-01-08T05:53:05.470Z,6.70
2019-01-08T05:55:34.769Z,6.70
2019-01-08T05:58:04.038Z,6.70
2019-01-08T06:00:33.334Z,6.70
2019-01-08T06:03:02.615Z,6.70
2019-01-08T06:05:32.215Z,6.70
2019-01-08T06:08:01.499Z,6.70
2019-01-08T06:10:30.795Z,6.70
2019-01-08T06:13:00.427Z,6.70
2019-01-08T06:15:29.711Z,6.70
2019-01-08T06:17:59.059Z,6.70
2019-01-08T06:20:28.339Z,6.70
2019-01-08T06:22:57.614Z,6.70
2019-01-08T06:25:27.235Z,6.70
2019-01-08T06:27:56.502Z,6.60
2019-01-08T06:30:25.803Z,6.60
2019-01-08T06:32:55.072Z,6.50
2019-01-08T06:35:24.371Z,6.50
2019-01-08T06:37:53.943Z,6.50
2019-01-08T06:40:23.248Z,6.40
2019-01-08T06:42:52.518Z,6.50
2019-01-08T06:45:22.039Z,6.50
2019-01-08T06:47:51.338Z,6.40
2019-01-08T06:50:20.623Z,6.50
2019-01-08T06:52:49.915Z,6.50
2019-01-08T06:55:19.191Z,6.40
2019-01-08T06:57:48.796Z,6.40
2019-01-08T07:00:18.066Z,6.40
2019-01-08T07:02:47.366Z,6.50
2019-01-08T07:05:16.648Z,6.40
2019-01-08T07:07:45.930Z,6.40
2019-01-08T07:10:15.476Z,6.40
2019-01-08T07:12:45.077Z,6.40
2019-01-08T07:15:14.352Z,6.40
2019-01-08T07:17:43.633Z,6.40
2019-01-08T07:20:13.179Z,6.30
2019-01-08T07:22:42.787Z,6.30
2019-01-08T07:25:12.066Z,6.30
2019-01-08T07:27:41.402Z,6.30
2019-01-08T07:30:10.719Z,6.30
2019-01-08T07:32:40.008Z,6.30
2019-01-08T07:35:09.307Z,6.30
2019-01-08T07:37:38.603Z,6.30
2019-01-08T07:40:08.307Z,6.30
2019-01-08T07:42:37.578Z,6.30
2019-01-08T07:45:06.863Z,6.30
2019-01-08T07:47:36.139Z,6.30
2019-01-08T07:50:08.290Z,6.30
2019-01-08T07:52:37.646Z,6.40
2019-01-08T07:55:06.943Z,6.30
2019-01-08T07:57:36.220Z,6.40
2019-01-08T08:00:07.263Z,6.40
2019-01-08T08:02:36.822Z,6.40
2019-01-08T08:05:06.179Z,6.40
2019-01-08T08:07:35.463Z,6.40
2019-01-08T08:10:07.179Z,6.40
2019-01-08T08:12:36.472Z,6.40
2019-01-08T08:15:07.019Z,6.40
2019-01-08T08:17:36.291Z,6.40
2019-01-08T08:20:07.403Z,6.40
2019-01-08T08:22:36.695Z,6.40
2019-01-08T08:25:06.623Z,6.50
2019-01-08T08:27:36.187Z,6.50
2019-01-08T08:30:08.039Z,6.50
2019-01-08T08:32:37.310Z,6.50
2019-01-08T08:35:08.697Z,6.40
2019-01-08T08:37:37.755Z,6.40
2019-01-08T08:40:07.975Z,6.40
2019-01-08T08:42:37.250Z,6.40
2019-01-08T08:45:08.518Z,6.40
2019-01-08T08:47:37.751Z,6.40
2019-01-08T08:50:07.223Z,6.40
2019-01-08T08:52:36.774Z,6.40
2019-01-08T08:55:06.470Z,6.40
2019-01-08T08:57:35.742Z,6.40
2019-01-08T09:00:07.183Z,6.40
2019-01-08T09:02:36.456Z,6.40
2019-01-08T09:05:05.811Z,6.40
2019-01-08T09:07:35.334Z,6.40
2019-01-08T09:10:05.461Z,6.40
2019-01-08T09:12:34.754Z,6.40
2019-01-08T09:15:04.190Z,6.30
2019-01-08T09:17:33.488Z,6.30
2019-01-08T09:20:02.763Z,6.20
2019-01-08T09:22:32.050Z,6.20
2019-01-08T09:25:01.337Z,6.20
2019-01-08T09:27:30.625Z,6.20
2019-01-08T09:29:59.911Z,6.20
2019-01-08T09:32:29.203Z,6.10
2019-01-08T09:34:58.763Z,6.10
2019-01-08T09:37:28.043Z,6.10
2019-01-08T09:39:57.339Z,6.00
2019-01-08T09:42:26.872Z,6.00
2019-01-08T09:44:56.479Z,6.00
2019-01-08T09:47:25.773Z,6.10
2019-01-08T09:49:55.051Z,6.00
2019-01-08T09:52:24.593Z,6.00
2019-01-08T09:54:53.882Z,6.10
2019-01-08T09:57:23.155Z,6.10
2019-01-08T09:59:52.690Z,6.10
2019-01-08T10:02:21.971Z,6.00
2019-01-08T10:04:51.266Z,6.00
2019-01-08T10:07:20.543Z,6.00
2019-01-08T10:09:49.832Z,6.00
2019-01-08T10:12:19.403Z,6.00
2019-01-08T10:14:48.707Z,5.90
2019-01-08T10:17:18.307Z,5.90
2019-01-08T10:19:47.588Z,5.90
2019-01-08T10:22:16.879Z,5.80
2019-01-08T10:24:46.415Z,5.90
2019-01-08T10:27:16.023Z,5.80
2019-01-08T10:29:45.631Z,5.80
2019-01-08T10:32:14.919Z,6.00
2019-01-08T10:34:44.191Z,6.20
2019-01-08T10:37:13.479Z,6.70
2019-01-08T10:39:43.042Z,6.70
2019-01-08T10:42:12.331Z,6.70
2019-01-08T10:44:41.599Z,6.60
2019-01-08T10:47:10.891Z,6.50
2019-01-08T10:49:40.182Z,6.40
2019-01-08T10:52:09.455Z,6.40
2019-01-08T10:54:38.755Z,6.50
2019-01-08T10:57:08.041Z,6.40
2019-01-08T10:59:37.323Z,6.40
2019-01-08T11:02:06.953Z,6.30
2019-01-08T11:04:36.226Z,6.30
2019-01-08T11:07:05.514Z,6.30
2019-01-08T11:09:34.811Z,6.30
2019-01-08T11:12:04.086Z,6.20
2019-01-08T11:14:33.374Z,6.20
2019-01-08T11:17:02.966Z,6.20
2019-01-08T11:19:32.240Z,6.30
2019-01-08T11:22:01.527Z,6.30
2019-01-08T11:24:30.807Z,6.30
2019-01-08T11:27:00.098Z,6.30
2019-01-08T11:29:29.374Z,6.30
2019-01-08T11:31:58.666Z,6.30
2019-01-08T11:34:27.947Z,6.40
2019-01-08T11:36:57.310Z,6.40
2019-01-08T11:39:26.607Z,6.30
2019-01-08T11:41:55.908Z,6.30
2019-01-08T11:44:25.179Z,6.20
2019-01-08T11:46:54.783Z,6.20
2019-01-08T11:49:24.061Z,6.20
2019-01-08T11:51:53.360Z,6.10
2019-01-08T11:54:22.635Z,6.10
2019-01-08T11:56:51.919Z,6.10
2019-01-08T11:59:21.207Z,6.00
2019-01-08T12:01:57.172Z,6.00
2019-01-08T12:04:22.029Z,6.00
2019-01-08T12:06:51.324Z,5.90
2019-01-08T12:09:20.601Z,5.90
2019-01-08T12:11:49.886Z,5.90
2019-01-08T12:14:19.163Z,5.90
2019-01-08T12:16:48.455Z,5.90
2019-01-08T12:19:17.749Z,6.00
2019-01-08T12:21:47.045Z,6.00
2019-01-08T12:24:16.644Z,6.10
2019-01-08T12:26:45.934Z,6.20
2019-01-08T12:29:15.228Z,6.20
2019-01-08T12:31:44.525Z,6.20
2019-01-08T12:34:13.790Z,6.20
2019-01-08T12:36:43.347Z,6.20
2019-01-08T12:39:12.622Z,6.20
2019-01-08T12:41:41.924Z,6.30
2019-01-08T12:44:11.200Z,6.30
2019-01-08T12:46:40.487Z,6.50
2019-01-08T12:49:09.767Z,6.50
2019-01-08T12:51:39.054Z,6.50
2019-01-08T12:54:08.334Z,6.60
2019-01-08T12:56:37.622Z,6.50
2019-01-08T12:59:06.904Z,6.40
2019-01-08T13:01:36.191Z,6.50
2019-01-08T13:04:05.479Z,6.50
2019-01-08T13:06:35.060Z,6.50
2019-01-08T13:09:06.642Z,6.50
2019-01-08T13:11:36.219Z,6.40
2019-01-08T13:14:05.515Z,6.40
2019-01-08T13:16:34.791Z,6.40
2019-01-08T13:19:04.091Z,6.40
2019-01-08T13:21:33.627Z,6.40
2019-01-08T13:24:03.235Z,6.40
2019-01-08T13:26:32.523Z,6.40
2019-01-08T13:29:01.812Z,6.40
2019-01-08T13:31:31.444Z,6.50
2019-01-08T13:34:00.712Z,6.40
2019-01-08T13:36:29.999Z,6.50
2019-01-08T13:38:59.276Z,6.50
2019-01-08T13:41:28.568Z,6.50
2019-01-08T13:43:57.839Z,6.60
2019-01-08T13:46:27.127Z,6.60
2019-01-08T13:48:56.398Z,6.70
2019-01-08T13:51:25.687Z,6.70
2019-01-08T13:53:54.983Z,6.70
2019-01-08T13:56:24.266Z,6.70
2019-01-08T13:58:53.568Z,6.60
2019-01-08T14:01:22.863Z,6.60
2019-01-08T14:03:52.143Z,6.50
2019-01-08T14:06:21.440Z,6.40
2019-01-08T14:08:50.711Z,6.30
2019-01-08T14:11:20.003Z,6.20
2019-01-08T14:13:49.289Z,6.00
2019-01-08T14:16:18.580Z,6.00
2019-01-08T14:18:48.164Z,6.00
2019-01-08T14:21:17.450Z,6.00
2019-01-08T14:23:46.723Z,6.00
2019-01-08T14:26:16.011Z,6.00
2019-01-08T14:28:45.568Z,5.90
2019-01-08T14:31:14.854Z,5.90
2019-01-08T14:33:44.127Z,6.00
2019-01-08T14:36:13.419Z,6.00
2019-01-08T14:38:42.709Z,6.00
2019-01-08T14:41:12.003Z,6.00
2019-01-08T14:43:41.274Z,6.00
2019-01-08T14:46:10.579Z,5.90
2019-01-08T14:48:39.931Z,5.90
2019-01-08T14:51:09.584Z,5.90
2019-01-08T14:53:38.859Z,5.80
2019-01-08T14:56:08.160Z,5.80
2019-01-08T14:58:37.688Z,5.80
2019-01-08T15:01:06.984Z,5.70
2019-01-08T15:03:36.271Z,5.70
2019-01-08T15:06:05.565Z,5.60
2019-01-08T15:08:34.835Z,5.60
2019-01-08T15:11:04.128Z,5.60
2019-01-08T15:13:33.423Z,5.60
2019-01-08T15:16:02.704Z,5.70
2019-01-08T15:18:32.003Z,5.50
2019-01-08T15:21:01.276Z,5.50
2019-01-08T15:23:30.894Z,5.50
2019-01-08T15:26:00.506Z,5.50
2019-01-08T15:28:30.167Z,5.60
2019-01-08T15:30:59.495Z,5.60
2019-01-08T15:33:28.763Z,5.60
2019-01-08T15:35:58.050Z,5.60
2019-01-08T15:38:27.411Z,5.60
2019-01-08T15:40:56.698Z,5.60
2019-01-08T15:43:25.991Z,5.70
2019-01-08T15:45:55.262Z,5.70
2019-01-08T15:48:24.556Z,5.70
2019-01-08T15:50:54.127Z,5.80
2019-01-08T15:53:23.398Z,5.80
2019-01-08T15:55:52.694Z,5.80
2019-01-08T15:58:21.962Z,5.70
2019-01-08T16:00:51.247Z,5.70
2019-01-08T16:03:20.835Z,5.80
2019-01-08T16:05:50.139Z,5.80
2019-01-08T16:08:19.647Z,5.80
2019-01-08T16:10:49.184Z,5.70
2019-01-08T16:13:18.451Z,5.70
2019-01-08T16:15:47.742Z,5.80
2019-01-08T16:18:17.016Z,5.90
2019-01-08T16:20:46.302Z,5.90
2019-01-08T16:23:15.574Z,6.00
2019-01-08T16:25:44.867Z,6.00
2019-01-08T16:28:14.147Z,6.10
2019-01-08T16:30:43.755Z,6.00
2019-01-08T16:33:16.196Z,6.00
2019-01-08T16:35:44.303Z,6.00
2019-01-08T16:38:13.590Z,6.00
2019-01-08T16:40:42.867Z,6.00
2019-01-08T16:43:12.161Z,5.90
2019-01-08T16:45:41.706Z,5.90
2019-01-08T16:48:11.003Z,5.90
2019-01-08T16:50:40.276Z,5.90
2019-01-08T16:53:09.576Z,5.90
2019-01-08T16:55:38.851Z,5.90
2019-01-08T16:58:08.146Z,5.90
2019-01-08T17:00:37.424Z,5.90
2019-01-08T17:03:06.711Z,5.90
2019-01-08T17:05:36.331Z,5.90
2019-01-08T17:08:05.602Z,5.80
2019-01-08T17:10:34.961Z,5.80
2019-01-08T17:13:04.535Z,5.80
2019-01-08T17:15:33.831Z,5.80
2019-01-08T17:18:03.098Z,5.90
2019-01-08T17:20:32.479Z,5.90
2019-01-08T17:23:01.764Z,5.90
2019-01-08T17:25:31.047Z,5.90
2019-01-08T17:28:00.388Z,5.90
2019-01-08T17:30:29.743Z,5.90
2019-01-08T17:32:59.353Z,5.90
2019-01-08T17:35:28.642Z,5.90
2019-01-08T17:37:58.151Z,5.80
2019-01-08T17:40:27.455Z,5.70
2019-01-08T17:42:56.723Z,5.70
2019-01-08T17:45:26.011Z,5.60
2019-01-08T17:47:55.282Z,5.70
2019-01-08T17:50:24.566Z,5.70
2019-01-08T17:52:53.869Z,5.70
2019-01-08T17:55:23.146Z,5.80
2019-01-08T17:57:55.835Z,5.80
2019-01-08T18:00:25.110Z,5.80
2019-01-08T18:02:54.402Z,5.90
2019-01-08T18:05:23.675Z,5.80
2019-01-08T18:07:52.973Z,5.80
2019-01-08T18:10:22.543Z,5.80
2019-01-08T18:12:51.820Z,5.70
2019-01-08T18:15:21.107Z,5.70
2019-01-08T18:17:50.383Z,5.70
2019-01-08T18:20:19.675Z,5.80
2019-01-08T18:22:48.972Z,5.80
2019-01-08T18:25:18.262Z,5.80
2019-01-08T18:27:47.551Z,5.80
2019-01-08T18:30:16.854Z,5.80
2019-01-08T18:32:46.122Z,5.80
2019-01-08T18:35:15.414Z,5.80
2019-01-08T18:37:44.698Z,5.80
2019-01-08T18:40:14.307Z,5.80
2019-01-08T18:42:43.834Z,5.80
2019-01-08T18:45:13.118Z,5.80
2019-01-08T18:47:42.666Z,5.80
2019-01-08T18:50:11.942Z,5.80
2019-01-08T18:52:41.236Z,5.90
2019-01-08T18:55:10.519Z,5.90
2019-01-08T18:57:39.827Z,5.90
2019-01-08T19:00:10.195Z,5.90
2019-01-08T19:02:39.486Z,5.90
2019-01-08T19:05:09.109Z,5.90
2019-01-08T19:07:38.436Z,6.00
2019-01-08T19:10:13.610Z,5.90
2019-01-08T19:12:43.352Z,5.90
2019-01-08T19:15:12.871Z,5.90
2019-01-08T19:17:42.151Z,5.90
2019-01-08T19:20:11.464Z,5.90
2019-01-08T19:22:40.738Z,5.90
2019-01-08T19:25:10.037Z,5.90
2019-01-08T19:27:39.303Z,5.80
2019-01-08T19:30:10.198Z,5.90
2019-01-08T19:32:39.471Z,5.90
2019-01-08T19:35:09.111Z,5.80
2019-01-08T19:37:38.395Z,5.80
2019-01-08T19:40:08.739Z,5.80
2019-01-08T19:42:38.026Z,5.80
2019-01-08T19:45:08.027Z,5.80
2019-01-08T19:47:37.563Z,5.80
2019-01-08T19:50:08.491Z,5.80
2019-01-08T19:52:37.761Z,5.70
2019-01-08T19:55:07.046Z,5.60
2019-01-08T19:57:36.335Z,5.50
2019-01-08T20:00:08.944Z,5.50
2019-01-08T20:02:38.479Z,5.40
2019-01-08T20:05:08.086Z,5.30
2019-01-08T20:07:37.379Z,5.20
2019-01-08T20:10:06.935Z,5.20
2019-01-08T20:12:36.186Z,5.10
2019-01-08T20:15:07.695Z,5.10
2019-01-08T20:17:37.256Z,5.00
2019-01-08T20:20:07.297Z,5.00
2019-01-08T20:22:36.562Z,4.90
2019-01-08T20:25:06.282Z,4.90
2019-01-08T20:27:35.567Z,4.90
2019-01-08T20:30:07.142Z,4.90
2019-01-08T20:32:36.410Z,4.90
2019-01-08T20:35:05.843Z,4.90
2019-01-08T20:37:35.172Z,4.90
2019-01-08T20:40:04.874Z,4.90
2019-01-08T20:42:34.464Z,4.90
2019-01-08T20:45:04.002Z,4.90
2019-01-08T20:47:33.623Z,4.90
2019-01-08T20:50:03.058Z,4.80
2019-01-08T20:52:32.367Z,4.80
2019-01-08T20:55:01.660Z,4.90
2019-01-08T20:57:30.943Z,4.90
2019-01-08T21:00:00.232Z,5.00
2019-01-08T21:02:29.510Z,5.00
2019-01-08T21:04:58.817Z,5.10
2019-01-08T21:07:28.391Z,5.10
2019-01-08T21:09:57.726Z,5.20
2019-01-08T21:12:27.003Z,5.20
2019-01-08T21:14:56.294Z,5.30
2019-01-08T21:17:25.597Z,5.30
2019-01-08T21:19:54.871Z,5.30
2019-01-08T21:22:24.167Z,5.30
2019-01-08T21:24:53.442Z,5.40
2019-01-08T21:27:23.830Z,5.40
2019-01-08T21:29:53.526Z,5.50
2019-01-08T21:32:22.814Z,5.40
2019-01-08T21:34:52.442Z,5.40
2019-01-08T21:37:21.719Z,5.50
2019-01-08T21:39:51.243Z,5.60
2019-01-08T21:42:20.509Z,5.80
2019-01-08T21:44:50.062Z,6.20
2019-01-08T21:47:19.340Z,6.30
2019-01-08T21:49:48.643Z,6.20
2019-01-08T21:52:17.942Z,6.00
2019-01-08T21:54:47.285Z,5.80
2019-01-08T21:57:16.586Z,5.70
2019-01-08T21:59:46.627Z,5.60
2019-01-08T22:02:15.912Z,5.50
2019-01-08T22:04:52.731Z,5.40
2019-01-08T22:07:17.627Z,5.30
2019-01-08T22:09:46.921Z,5.30
2019-01-08T22:12:16.196Z,5.30
2019-01-08T22:14:45.479Z,5.20
2019-01-08T22:17:14.775Z,5.20
2019-01-08T22:19:44.359Z,5.10
2019-01-08T22:22:13.964Z,5.20
2019-01-08T22:24:43.270Z,5.20
2019-01-08T22:27:12.530Z,5.10
2019-01-08T22:29:41.905Z,4.90
2019-01-08T22:32:11.175Z,4.80
2019-01-08T22:34:40.776Z,4.70
2019-01-08T22:37:10.206Z,4.60
2019-01-08T22:39:39.488Z,4.60
2019-01-08T22:42:09.038Z,4.60
2019-01-08T22:44:38.699Z,4.60
2019-01-08T22:47:07.999Z,4.70
2019-01-08T22:49:37.290Z,4.70
2019-01-08T22:52:06.810Z,4.80
2019-01-08T22:54:36.106Z,4.80
2019-01-08T22:57:06.227Z,4.80
2019-01-08T22:59:35.521Z,4.80
2019-01-08T23:02:05.263Z,4.90
2019-01-08T23:04:34.623Z,4.90
2019-01-08T23:07:04.139Z,4.90
2019-01-08T23:09:33.435Z,4.90
2019-01-08T23:12:02.707Z,4.90
2019-01-08T23:14:31.999Z,4.80
2019-01-08T23:17:01.266Z,4.90
2019-01-08T23:19:30.555Z,4.80
2019-01-08T23:21:59.841Z,4.80
2019-01-08T23:24:29.455Z,4.80
2019-01-08T23:26:58.747Z,4.60
2019-01-08T23:29:28.003Z,4.60
2019-01-08T23:31:57.558Z,4.60
2019-01-08T23:34:26.919Z,4.50
2019-01-08T23:36:56.297Z,4.60
2019-01-08T23:39:25.586Z,4.60
2019-01-08T23:41:54.846Z,4.70
2019-01-08T23:44:24.131Z,4.60
2019-01-08T23:46:53.430Z,4.70
2019-01-08T23:49:22.707Z,4.70
2019-01-08T23:51:55.078Z,4.70
2019-01-08T23:54:26.148Z,4.80
2019-01-08T23:56:56.371Z,4.80
2019-01-08T23:59:25.662Z,4.90
